sensor_id;sensor_type;location;lat;lon;timestamp;temperature;humidity
55436;DHT22;41307;53.142;6.430;2023-07-13T00:00:26;16.10;99.90
55436;DHT22;41307;53.142;6.430;2023-07-13T00:02:52;16.10;99.90
55436;DHT22;41307;53.142;6.430;2023-07-13T00:05:21;16.10;99.90
55436;DHT22;41307;53.142;6.430;2023-07-13T00:07:48;16.10;99.90
55436;DHT22;41307;53.142;6.430;2023-07-13T00:10:15;16.10;99.90
55436;DHT22;41307;53.142;6.430;2023-07-13T00:12:41;16.20;99.90
55436;DHT22;41307;53.142;6.430;2023-07-13T00:15:14;16.20;99.90
55436;DHT22;41307;53.142;6.430;2023-07-13T00:17:42;16.20;99.90
55436;DHT22;41307;53.142;6.430;2023-07-13T00:20:10;16.20;99.90
55436;DHT22;41307;53.142;6.430;2023-07-13T00:22:36;16.20;99.90
55436;DHT22;41307;53.142;6.430;2023-07-13T00:25:02;16.20;99.90
55436;DHT22;41307;53.142;6.430;2023-07-13T00:27:28;16.10;99.90
55436;DHT22;41307;53.142;6.430;2023-07-13T00:29:57;16.10;99.90
55436;DHT22;41307;53.142;6.430;2023-07-13T00:32:23;16.20;99.90
55436;DHT22;41307;53.142;6.430;2023-07-13T00:34:51;16.20;99.90
55436;DHT22;41307;53.142;6.430;2023-07-13T00:37:17;16.10;99.90
55436;DHT22;41307;53.142;6.430;2023-07-13T00:39:43;16.10;99.90
55436;DHT22;41307;53.142;6.430;2023-07-13T00:42:09;16.10;99.90
55436;DHT22;41307;53.142;6.430;2023-07-13T00:44:35;16.20;99.90
55436;DHT22;41307;53.142;6.430;2023-07-13T00:47:01;16.20;99.90
55436;DHT22;41307;53.142;6.430;2023-07-13T00:49:30;16.20;99.90
55436;DHT22;41307;53.142;6.430;2023-07-13T00:51:59;16.10;99.90
55436;DHT22;41307;53.142;6.430;2023-07-13T00:54:34;16.10;99.90
55436;DHT22;41307;53.142;6.430;2023-07-13T00:57:05;16.00;99.90
55436;DHT22;41307;53.142;6.430;2023-07-13T00:59:34;16.00;99.90
55436;DHT22;41307;53.142;6.430;2023-07-13T01:02:01;16.00;99.90
55436;DHT22;41307;53.142;6.430;2023-07-13T01:04:27;15.80;99.90
55436;DHT22;41307;53.142;6.430;2023-07-13T01:06:53;15.80;99.90
55436;DHT22;41307;53.142;6.430;2023-07-13T01:09:20;15.80;99.90
55436;DHT22;41307;53.142;6.430;2023-07-13T01:11:47;15.80;99.90
55436;DHT22;41307;53.142;6.430;2023-07-13T01:14:13;15.70;99.90
55436;DHT22;41307;53.142;6.430;2023-07-13T01:16:41;15.60;99.90
55436;DHT22;41307;53.142;6.430;2023-07-13T01:19:35;15.40;99.90
55436;DHT22;41307;53.142;6.430;2023-07-13T01:22:16;15.60;99.90
55436;DHT22;41307;53.142;6.430;2023-07-13T01:24:45;15.60;99.90
55436;DHT22;41307;53.142;6.430;2023-07-13T01:27:15;15.60;99.90
55436;DHT22;41307;53.142;6.430;2023-07-13T01:29:42;15.60;99.90
55436;DHT22;41307;53.142;6.430;2023-07-13T01:32:23;15.70;99.90
55436;DHT22;41307;53.142;6.430;2023-07-13T01:34:53;15.70;99.90
55436;DHT22;41307;53.142;6.430;2023-07-13T01:37:23;15.70;99.90
55436;DHT22;41307;53.142;6.430;2023-07-13T01:39:49;15.80;99.90
55436;DHT22;41307;53.142;6.430;2023-07-13T01:42:15;15.80;99.90
55436;DHT22;41307;53.142;6.430;2023-07-13T01:44:41;15.80;99.90
55436;DHT22;41307;53.142;6.430;2023-07-13T01:47:07;15.80;99.90
55436;DHT22;41307;53.142;6.430;2023-07-13T01:49:33;15.80;99.90
55436;DHT22;41307;53.142;6.430;2023-07-13T01:51:58;15.90;99.90
55436;DHT22;41307;53.142;6.430;2023-07-13T01:54:24;15.80;99.90
55436;DHT22;41307;53.142;6.430;2023-07-13T01:56:50;15.90;99.90
55436;DHT22;41307;53.142;6.430;2023-07-13T01:59:16;15.90;99.90
55436;DHT22;41307;53.142;6.430;2023-07-13T02:01:41;15.90;99.90
55436;DHT22;41307;53.142;6.430;2023-07-13T02:04:07;15.90;99.90
55436;DHT22;41307;53.142;6.430;2023-07-13T02:06:33;15.90;99.90
55436;DHT22;41307;53.142;6.430;2023-07-13T02:08:59;15.80;99.90
55436;DHT22;41307;53.142;6.430;2023-07-13T02:11:25;15.80;99.90
55436;DHT22;41307;53.142;6.430;2023-07-13T02:13:51;15.80;99.90
55436;DHT22;41307;53.142;6.430;2023-07-13T02:16:17;15.80;99.90
55436;DHT22;41307;53.142;6.430;2023-07-13T02:18:43;15.80;99.90
55436;DHT22;41307;53.142;6.430;2023-07-13T02:21:09;15.80;99.90
55436;DHT22;41307;53.142;6.430;2023-07-13T02:23:34;15.70;99.90
55436;DHT22;41307;53.142;6.430;2023-07-13T02:26:03;15.70;99.90
55436;DHT22;41307;53.142;6.430;2023-07-13T02:28:29;15.60;99.90
55436;DHT22;41307;53.142;6.430;2023-07-13T02:30:54;15.60;99.90
55436;DHT22;41307;53.142;6.430;2023-07-13T02:33:20;15.50;99.90
55436;DHT22;41307;53.142;6.430;2023-07-13T02:35:46;15.50;99.90
55436;DHT22;41307;53.142;6.430;2023-07-13T02:38:12;15.50;99.90
55436;DHT22;41307;53.142;6.430;2023-07-13T02:40:37;15.40;99.90
55436;DHT22;41307;53.142;6.430;2023-07-13T02:43:03;15.40;99.90
55436;DHT22;41307;53.142;6.430;2023-07-13T02:45:29;15.40;99.90
55436;DHT22;41307;53.142;6.430;2023-07-13T02:47:55;15.30;99.90
55436;DHT22;41307;53.142;6.430;2023-07-13T02:50:20;15.30;99.90
55436;DHT22;41307;53.142;6.430;2023-07-13T02:52:46;15.30;99.90
55436;DHT22;41307;53.142;6.430;2023-07-13T02:55:12;15.30;99.90
55436;DHT22;41307;53.142;6.430;2023-07-13T02:57:38;15.20;99.90
55436;DHT22;41307;53.142;6.430;2023-07-13T03:00:04;15.20;99.90
55436;DHT22;41307;53.142;6.430;2023-07-13T03:02:31;15.20;99.90
55436;DHT22;41307;53.142;6.430;2023-07-13T03:04:57;15.20;99.90
55436;DHT22;41307;53.142;6.430;2023-07-13T03:07:23;15.20;99.90
55436;DHT22;41307;53.142;6.430;2023-07-13T03:09:57;15.10;99.90
55436;DHT22;41307;53.142;6.430;2023-07-13T03:12:23;15.10;99.90
55436;DHT22;41307;53.142;6.430;2023-07-13T03:14:49;15.10;99.90
55436;DHT22;41307;53.142;6.430;2023-07-13T03:17:15;15.10;99.90
55436;DHT22;41307;53.142;6.430;2023-07-13T03:19:41;15.10;99.90
55436;DHT22;41307;53.142;6.430;2023-07-13T03:22:07;15.10;99.90
55436;DHT22;41307;53.142;6.430;2023-07-13T03:24:34;15.00;99.90
55436;DHT22;41307;53.142;6.430;2023-07-13T03:27:02;15.00;99.90
55436;DHT22;41307;53.142;6.430;2023-07-13T03:29:27;15.00;99.90
55436;DHT22;41307;53.142;6.430;2023-07-13T03:31:53;15.10;99.90
55436;DHT22;41307;53.142;6.430;2023-07-13T03:34:19;15.20;99.90
55436;DHT22;41307;53.142;6.430;2023-07-13T03:36:45;15.20;99.90
55436;DHT22;41307;53.142;6.430;2023-07-13T03:39:10;15.20;99.90
55436;DHT22;41307;53.142;6.430;2023-07-13T03:41:36;15.20;99.90
55436;DHT22;41307;53.142;6.430;2023-07-13T03:44:02;15.20;99.90
55436;DHT22;41307;53.142;6.430;2023-07-13T03:46:29;15.20;99.90
55436;DHT22;41307;53.142;6.430;2023-07-13T03:48:55;15.30;99.90
55436;DHT22;41307;53.142;6.430;2023-07-13T03:51:21;15.30;99.90
55436;DHT22;41307;53.142;6.430;2023-07-13T03:53:47;15.40;99.90
55436;DHT22;41307;53.142;6.430;2023-07-13T03:56:14;15.30;99.90
55436;DHT22;41307;53.142;6.430;2023-07-13T03:58:42;15.30;99.90
55436;DHT22;41307;53.142;6.430;2023-07-13T04:01:10;15.30;99.90
55436;DHT22;41307;53.142;6.430;2023-07-13T04:03:36;15.30;99.90
55436;DHT22;41307;53.142;6.430;2023-07-13T04:06:04;15.30;99.90
55436;DHT22;41307;53.142;6.430;2023-07-13T04:08:33;15.40;99.90
55436;DHT22;41307;53.142;6.430;2023-07-13T04:10:59;15.40;99.90
55436;DHT22;41307;53.142;6.430;2023-07-13T04:13:25;15.40;99.90
55436;DHT22;41307;53.142;6.430;2023-07-13T04:15:51;15.40;99.90
55436;DHT22;41307;53.142;6.430;2023-07-13T04:18:17;15.40;99.90
55436;DHT22;41307;53.142;6.430;2023-07-13T04:20:43;15.50;99.90
55436;DHT22;41307;53.142;6.430;2023-07-13T04:23:09;15.50;99.90
55436;DHT22;41307;53.142;6.430;2023-07-13T04:25:35;15.70;99.90
55436;DHT22;41307;53.142;6.430;2023-07-13T04:28:00;15.80;99.90
55436;DHT22;41307;53.142;6.430;2023-07-13T04:30:26;16.00;99.90
55436;DHT22;41307;53.142;6.430;2023-07-13T04:32:52;16.10;99.90
55436;DHT22;41307;53.142;6.430;2023-07-13T04:35:21;16.10;99.90
55436;DHT22;41307;53.142;6.430;2023-07-13T04:37:50;16.10;99.90
55436;DHT22;41307;53.142;6.430;2023-07-13T04:40:17;16.20;99.90
55436;DHT22;41307;53.142;6.430;2023-07-13T04:42:44;16.40;99.90
55436;DHT22;41307;53.142;6.430;2023-07-13T04:45:11;16.80;99.90
55436;DHT22;41307;53.142;6.430;2023-07-13T04:47:36;17.10;99.90
55436;DHT22;41307;53.142;6.430;2023-07-13T04:50:02;17.20;99.90
55436;DHT22;41307;53.142;6.430;2023-07-13T04:52:28;17.30;99.90
55436;DHT22;41307;53.142;6.430;2023-07-13T04:54:54;17.20;99.90
55436;DHT22;41307;53.142;6.430;2023-07-13T04:57:20;17.10;99.90
55436;DHT22;41307;53.142;6.430;2023-07-13T04:59:45;17.00;99.90
55436;DHT22;41307;53.142;6.430;2023-07-13T05:02:11;17.00;99.90
55436;DHT22;41307;53.142;6.430;2023-07-13T05:04:37;17.00;99.90
55436;DHT22;41307;53.142;6.430;2023-07-13T05:07:03;16.90;99.90
55436;DHT22;41307;53.142;6.430;2023-07-13T05:09:28;16.90;99.90
55436;DHT22;41307;53.142;6.430;2023-07-13T05:11:54;16.90;99.90
55436;DHT22;41307;53.142;6.430;2023-07-13T05:14:20;17.10;99.90
55436;DHT22;41307;53.142;6.430;2023-07-13T05:16:45;17.80;99.90
55436;DHT22;41307;53.142;6.430;2023-07-13T05:19:12;18.60;99.90
55436;DHT22;41307;53.142;6.430;2023-07-13T05:21:37;19.30;99.90
55436;DHT22;41307;53.142;6.430;2023-07-13T05:24:03;20.20;99.90
55436;DHT22;41307;53.142;6.430;2023-07-13T05:26:29;20.80;99.90
55436;DHT22;41307;53.142;6.430;2023-07-13T05:28:55;21.20;99.90
55436;DHT22;41307;53.142;6.430;2023-07-13T05:31:20;21.60;99.90
55436;DHT22;41307;53.142;6.430;2023-07-13T05:33:46;22.20;99.90
55436;DHT22;41307;53.142;6.430;2023-07-13T05:36:12;22.40;99.90
55436;DHT22;41307;53.142;6.430;2023-07-13T05:38:38;22.90;99.90
55436;DHT22;41307;53.142;6.430;2023-07-13T05:41:03;23.30;99.90
55436;DHT22;41307;53.142;6.430;2023-07-13T05:43:29;23.40;99.90
55436;DHT22;41307;53.142;6.430;2023-07-13T05:45:56;23.70;99.90
55436;DHT22;41307;53.142;6.430;2023-07-13T05:48:22;24.00;99.90
55436;DHT22;41307;53.142;6.430;2023-07-13T05:50:48;23.80;99.90
55436;DHT22;41307;53.142;6.430;2023-07-13T05:53:14;24.20;99.90
55436;DHT22;41307;53.142;6.430;2023-07-13T05:55:44;24.20;99.90
55436;DHT22;41307;53.142;6.430;2023-07-13T05:58:13;24.50;99.90
55436;DHT22;41307;53.142;6.430;2023-07-13T06:00:39;24.60;99.90
55436;DHT22;41307;53.142;6.430;2023-07-13T06:03:06;24.80;99.90
55436;DHT22;41307;53.142;6.430;2023-07-13T06:05:33;25.00;99.90
55436;DHT22;41307;53.142;6.430;2023-07-13T06:08:00;25.10;99.90
55436;DHT22;41307;53.142;6.430;2023-07-13T06:10:26;25.40;99.90
55436;DHT22;41307;53.142;6.430;2023-07-13T06:12:51;25.80;99.90
55436;DHT22;41307;53.142;6.430;2023-07-13T06:15:17;25.90;99.90
55436;DHT22;41307;53.142;6.430;2023-07-13T06:17:43;25.80;99.90
55436;DHT22;41307;53.142;6.430;2023-07-13T06:20:09;26.00;99.90
55436;DHT22;41307;53.142;6.430;2023-07-13T06:22:35;25.80;99.90
55436;DHT22;41307;53.142;6.430;2023-07-13T06:25:01;26.10;99.90
55436;DHT22;41307;53.142;6.430;2023-07-13T06:27:27;26.20;99.90
55436;DHT22;41307;53.142;6.430;2023-07-13T06:29:53;26.30;99.90
55436;DHT22;41307;53.142;6.430;2023-07-13T06:32:18;26.50;99.90
55436;DHT22;41307;53.142;6.430;2023-07-13T06:34:44;26.50;99.90
55436;DHT22;41307;53.142;6.430;2023-07-13T06:37:10;26.60;99.90
55436;DHT22;41307;53.142;6.430;2023-07-13T06:39:36;26.80;99.90
55436;DHT22;41307;53.142;6.430;2023-07-13T06:42:02;27.00;99.90
55436;DHT22;41307;53.142;6.430;2023-07-13T06:44:27;26.90;99.90
55436;DHT22;41307;53.142;6.430;2023-07-13T06:46:53;27.10;99.90
55436;DHT22;41307;53.142;6.430;2023-07-13T06:49:20;27.10;99.90
55436;DHT22;41307;53.142;6.430;2023-07-13T06:51:46;27.30;99.90
55436;DHT22;41307;53.142;6.430;2023-07-13T06:54:11;26.90;99.90
55436;DHT22;41307;53.142;6.430;2023-07-13T06:56:37;26.40;99.90
55436;DHT22;41307;53.142;6.430;2023-07-13T06:59:03;26.30;99.90
55436;DHT22;41307;53.142;6.430;2023-07-13T07:01:28;26.10;99.90
55436;DHT22;41307;53.142;6.430;2023-07-13T07:03:54;25.80;99.90
55436;DHT22;41307;53.142;6.430;2023-07-13T07:06:21;25.30;99.90
55436;DHT22;41307;53.142;6.430;2023-07-13T07:08:51;24.60;99.90
55436;DHT22;41307;53.142;6.430;2023-07-13T07:11:20;24.00;99.90
55436;DHT22;41307;53.142;6.430;2023-07-13T07:13:48;23.00;99.90
55436;DHT22;41307;53.142;6.430;2023-07-13T07:16:14;22.40;99.90
55436;DHT22;41307;53.142;6.430;2023-07-13T07:18:39;22.00;99.90
55436;DHT22;41307;53.142;6.430;2023-07-13T07:21:05;21.70;99.90
55436;DHT22;41307;53.142;6.430;2023-07-13T07:23:31;21.50;99.90
55436;DHT22;41307;53.142;6.430;2023-07-13T07:25:57;21.30;99.90
55436;DHT22;41307;53.142;6.430;2023-07-13T07:28:23;21.10;99.90
55436;DHT22;41307;53.142;6.430;2023-07-13T07:30:52;20.80;99.90
55436;DHT22;41307;53.142;6.430;2023-07-13T07:33:18;20.70;99.90
55436;DHT22;41307;53.142;6.430;2023-07-13T07:35:44;20.70;99.90
55436;DHT22;41307;53.142;6.430;2023-07-13T07:38:10;20.70;99.90
55436;DHT22;41307;53.142;6.430;2023-07-13T07:40:40;20.80;99.90
55436;DHT22;41307;53.142;6.430;2023-07-13T07:43:07;20.70;99.90
55436;DHT22;41307;53.142;6.430;2023-07-13T07:45:34;20.60;99.90
55436;DHT22;41307;53.142;6.430;2023-07-13T07:48:00;20.50;99.90
55436;DHT22;41307;53.142;6.430;2023-07-13T07:50:27;20.30;99.90
55436;DHT22;41307;53.142;6.430;2023-07-13T07:52:53;20.20;99.90
55436;DHT22;41307;53.142;6.430;2023-07-13T07:55:22;20.00;99.90
55436;DHT22;41307;53.142;6.430;2023-07-13T07:57:48;19.80;99.90
55436;DHT22;41307;53.142;6.430;2023-07-13T08:00:15;19.60;99.90
55436;DHT22;41307;53.142;6.430;2023-07-13T08:02:41;19.50;99.90
55436;DHT22;41307;53.142;6.430;2023-07-13T08:05:08;19.50;99.90
55436;DHT22;41307;53.142;6.430;2023-07-13T08:07:35;19.70;99.90
55436;DHT22;41307;53.142;6.430;2023-07-13T08:10:01;19.90;99.90
55436;DHT22;41307;53.142;6.430;2023-07-13T08:12:27;20.20;99.90
55436;DHT22;41307;53.142;6.430;2023-07-13T08:14:53;20.60;99.90
55436;DHT22;41307;53.142;6.430;2023-07-13T08:17:26;21.00;99.90
55436;DHT22;41307;53.142;6.430;2023-07-13T08:19:52;21.30;99.90
55436;DHT22;41307;53.142;6.430;2023-07-13T08:22:18;21.40;99.90
55436;DHT22;41307;53.142;6.430;2023-07-13T08:24:43;21.60;99.90
55436;DHT22;41307;53.142;6.430;2023-07-13T08:27:11;21.70;99.90
55436;DHT22;41307;53.142;6.430;2023-07-13T08:29:39;21.80;99.90
55436;DHT22;41307;53.142;6.430;2023-07-13T08:32:06;22.00;99.90
55436;DHT22;41307;53.142;6.430;2023-07-13T08:34:35;22.10;99.90
55436;DHT22;41307;53.142;6.430;2023-07-13T08:37:02;22.20;99.90
55436;DHT22;41307;53.142;6.430;2023-07-13T08:39:30;22.10;99.90
55436;DHT22;41307;53.142;6.430;2023-07-13T08:42:06;22.10;99.90
55436;DHT22;41307;53.142;6.430;2023-07-13T08:45:01;22.30;99.90
55436;DHT22;41307;53.142;6.430;2023-07-13T08:47:29;22.50;99.90
55436;DHT22;41307;53.142;6.430;2023-07-13T08:49:56;22.80;99.90
55436;DHT22;41307;53.142;6.430;2023-07-13T08:52:37;22.90;99.90
55436;DHT22;41307;53.142;6.430;2023-07-13T08:55:17;22.90;99.90
55436;DHT22;41307;53.142;6.430;2023-07-13T08:57:47;22.70;99.90
55436;DHT22;41307;53.142;6.430;2023-07-13T09:00:14;22.70;99.90
55436;DHT22;41307;53.142;6.430;2023-07-13T09:02:50;22.90;99.90
55436;DHT22;41307;53.142;6.430;2023-07-13T09:05:26;23.50;99.90
55436;DHT22;41307;53.142;6.430;2023-07-13T09:10:52;23.70;99.90
55436;DHT22;41307;53.142;6.430;2023-07-13T09:16:13;23.80;99.90
55436;DHT22;41307;53.142;6.430;2023-07-13T09:18:44;23.70;99.90
55436;DHT22;41307;53.142;6.430;2023-07-13T09:21:32;23.60;99.90
55436;DHT22;41307;53.142;6.430;2023-07-13T09:26:43;22.90;99.90
55436;DHT22;41307;53.142;6.430;2023-07-13T09:29:16;22.60;99.90
55436;DHT22;41307;53.142;6.430;2023-07-13T09:31:46;22.70;99.90
55436;DHT22;41307;53.142;6.430;2023-07-13T09:34:14;22.70;99.90
55436;DHT22;41307;53.142;6.430;2023-07-13T09:36:40;22.70;99.90
55436;DHT22;41307;53.142;6.430;2023-07-13T09:39:30;23.00;99.90
55436;DHT22;41307;53.142;6.430;2023-07-13T09:42:16;23.10;99.90
55436;DHT22;41307;53.142;6.430;2023-07-13T09:44:57;23.00;99.90
55436;DHT22;41307;53.142;6.430;2023-07-13T09:47:31;23.50;99.90
55436;DHT22;41307;53.142;6.430;2023-07-13T09:50:07;23.80;99.90
55436;DHT22;41307;53.142;6.430;2023-07-13T09:55:30;23.80;99.90
55436;DHT22;41307;53.142;6.430;2023-07-13T09:57:56;23.80;99.90
55436;DHT22;41307;53.142;6.430;2023-07-13T10:00:27;24.00;99.90
55436;DHT22;41307;53.142;6.430;2023-07-13T10:03:16;24.40;99.90
55436;DHT22;41307;53.142;6.430;2023-07-13T10:05:45;24.80;99.90
55436;DHT22;41307;53.142;6.430;2023-07-13T10:08:26;24.70;99.90
55436;DHT22;41307;53.142;6.430;2023-07-13T10:11:17;24.40;99.90
55436;DHT22;41307;53.142;6.430;2023-07-13T10:16:25;23.80;99.90
55436;DHT22;41307;53.142;6.430;2023-07-13T10:19:10;23.50;99.90
55436;DHT22;41307;53.142;6.430;2023-07-13T10:21:47;23.40;99.90
55436;DHT22;41307;53.142;6.430;2023-07-13T10:24:18;23.50;99.90
55436;DHT22;41307;53.142;6.430;2023-07-13T10:29:34;24.50;99.80
55436;DHT22;41307;53.142;6.430;2023-07-13T10:32:01;25.00;99.90
55436;DHT22;41307;53.142;6.430;2023-07-13T10:34:27;24.80;99.90
55436;DHT22;41307;53.142;6.430;2023-07-13T10:36:53;24.50;99.90
55436;DHT22;41307;53.142;6.430;2023-07-13T10:39:22;24.10;99.90
55436;DHT22;41307;53.142;6.430;2023-07-13T10:41:55;23.90;99.50
55436;DHT22;41307;53.142;6.430;2023-07-13T10:44:28;23.50;99.10
55436;DHT22;41307;53.142;6.430;2023-07-13T10:47:00;23.40;99.40
55436;DHT22;41307;53.142;6.430;2023-07-13T10:49:28;23.30;98.70
55436;DHT22;41307;53.142;6.430;2023-07-13T10:51:54;23.30;98.50
55436;DHT22;41307;53.142;6.430;2023-07-13T10:54:34;23.60;98.80
55436;DHT22;41307;53.142;6.430;2023-07-13T10:57:26;24.20;98.90
55436;DHT22;41307;53.142;6.430;2023-07-13T11:02:27;25.10;98.00
55436;DHT22;41307;53.142;6.430;2023-07-13T11:04:56;25.10;97.60
55436;DHT22;41307;53.142;6.430;2023-07-13T11:07:28;25.20;97.80
55436;DHT22;41307;53.142;6.430;2023-07-13T11:09:56;25.50;97.40
55436;DHT22;41307;53.142;6.430;2023-07-13T11:19:54;26.50;94.60
55436;DHT22;41307;53.142;6.430;2023-07-13T11:22:49;26.30;94.00
55436;DHT22;41307;53.142;6.430;2023-07-13T11:25:32;25.80;92.70
55436;DHT22;41307;53.142;6.430;2023-07-13T11:31:01;25.90;92.60
55436;DHT22;41307;53.142;6.430;2023-07-13T11:36:12;26.10;92.30
55436;DHT22;41307;53.142;6.430;2023-07-13T11:38:44;26.20;92.30
55436;DHT22;41307;53.142;6.430;2023-07-13T11:43:49;26.00;90.50
55436;DHT22;41307;53.142;6.430;2023-07-13T11:46:23;26.10;90.40
55436;DHT22;41307;53.142;6.430;2023-07-13T11:48:50;26.10;89.40
55436;DHT22;41307;53.142;6.430;2023-07-13T11:53:55;26.20;84.60
55436;DHT22;41307;53.142;6.430;2023-07-13T11:56:23;26.10;86.80
55436;DHT22;41307;53.142;6.430;2023-07-13T11:58:53;25.70;85.10
55436;DHT22;41307;53.142;6.430;2023-07-13T12:01:27;25.70;86.40
55436;DHT22;41307;53.142;6.430;2023-07-13T12:04:00;25.70;85.90
55436;DHT22;41307;53.142;6.430;2023-07-13T12:06:34;25.80;85.80
55436;DHT22;41307;53.142;6.430;2023-07-13T12:09:14;25.80;84.60
55436;DHT22;41307;53.142;6.430;2023-07-13T12:11:43;25.90;86.10
55436;DHT22;41307;53.142;6.430;2023-07-13T12:14:17;25.60;85.00
55436;DHT22;41307;53.142;6.430;2023-07-13T12:16:44;25.00;84.80
55436;DHT22;41307;53.142;6.430;2023-07-13T12:19:22;24.60;85.70
55436;DHT22;41307;53.142;6.430;2023-07-13T12:21:49;24.40;85.40
55436;DHT22;41307;53.142;6.430;2023-07-13T12:24:21;24.30;87.10
55436;DHT22;41307;53.142;6.430;2023-07-13T12:27:02;24.60;86.10
55436;DHT22;41307;53.142;6.430;2023-07-13T12:29:30;24.70;86.40
55436;DHT22;41307;53.142;6.430;2023-07-13T12:31:57;24.90;85.50
55436;DHT22;41307;53.142;6.430;2023-07-13T12:34:25;25.20;85.60
55436;DHT22;41307;53.142;6.430;2023-07-13T12:36:59;25.40;84.90
55436;DHT22;41307;53.142;6.430;2023-07-13T12:39:36;25.50;86.50
55436;DHT22;41307;53.142;6.430;2023-07-13T12:42:27;25.30;85.50
55436;DHT22;41307;53.142;6.430;2023-07-13T12:45:19;25.30;85.10
55436;DHT22;41307;53.142;6.430;2023-07-13T12:47:49;25.40;84.30
55436;DHT22;41307;53.142;6.430;2023-07-13T12:50:20;25.40;84.00
55436;DHT22;41307;53.142;6.430;2023-07-13T12:52:54;25.50;84.50
55436;DHT22;41307;53.142;6.430;2023-07-13T12:55:22;25.60;84.40
55436;DHT22;41307;53.142;6.430;2023-07-13T12:57:54;25.60;84.40
55436;DHT22;41307;53.142;6.430;2023-07-13T13:00:30;25.30;84.40
55436;DHT22;41307;53.142;6.430;2023-07-13T13:03:05;25.30;85.70
55436;DHT22;41307;53.142;6.430;2023-07-13T13:05:35;25.00;85.80
55436;DHT22;41307;53.142;6.430;2023-07-13T13:08:02;25.00;86.70
55436;DHT22;41307;53.142;6.430;2023-07-13T13:10:28;25.10;86.90
55436;DHT22;41307;53.142;6.430;2023-07-13T13:12:57;25.10;86.80
55436;DHT22;41307;53.142;6.430;2023-07-13T13:15:23;25.10;86.80
55436;DHT22;41307;53.142;6.430;2023-07-13T13:17:49;25.10;86.50
55436;DHT22;41307;53.142;6.430;2023-07-13T13:20:17;25.10;86.60
55436;DHT22;41307;53.142;6.430;2023-07-13T13:22:43;25.10;86.70
55436;DHT22;41307;53.142;6.430;2023-07-13T13:25:13;24.90;86.90
55436;DHT22;41307;53.142;6.430;2023-07-13T13:27:43;24.70;85.70
55436;DHT22;41307;53.142;6.430;2023-07-13T13:30:14;24.70;86.00
55436;DHT22;41307;53.142;6.430;2023-07-13T13:32:42;24.70;86.40
55436;DHT22;41307;53.142;6.430;2023-07-13T13:35:14;24.70;86.50
55436;DHT22;41307;53.142;6.430;2023-07-13T13:37:40;24.80;86.20
55436;DHT22;41307;53.142;6.430;2023-07-13T13:40:21;24.60;86.30
55436;DHT22;41307;53.142;6.430;2023-07-13T13:42:51;24.60;87.00
55436;DHT22;41307;53.142;6.430;2023-07-13T13:45:19;24.60;87.70
55436;DHT22;41307;53.142;6.430;2023-07-13T13:47:46;24.70;87.30
55436;DHT22;41307;53.142;6.430;2023-07-13T13:50:20;24.50;88.00
55436;DHT22;41307;53.142;6.430;2023-07-13T13:52:48;24.30;87.40
55436;DHT22;41307;53.142;6.430;2023-07-13T13:55:19;24.10;87.80
55436;DHT22;41307;53.142;6.430;2023-07-13T13:57:46;24.00;88.10
55436;DHT22;41307;53.142;6.430;2023-07-13T14:00:13;23.90;88.90
55436;DHT22;41307;53.142;6.430;2023-07-13T14:02:46;24.20;89.30
55436;DHT22;41307;53.142;6.430;2023-07-13T14:05:22;24.40;89.60
55436;DHT22;41307;53.142;6.430;2023-07-13T14:07:48;24.60;88.10
55436;DHT22;41307;53.142;6.430;2023-07-13T14:10:17;24.60;88.00
55436;DHT22;41307;53.142;6.430;2023-07-13T14:12:51;24.60;88.50
55436;DHT22;41307;53.142;6.430;2023-07-13T14:15:26;24.70;89.90
55436;DHT22;41307;53.142;6.430;2023-07-13T14:17:53;24.70;89.80
55436;DHT22;41307;53.142;6.430;2023-07-13T14:20:21;24.70;89.40
55436;DHT22;41307;53.142;6.430;2023-07-13T14:22:49;24.60;88.40
55436;DHT22;41307;53.142;6.430;2023-07-13T14:25:16;24.40;88.20
55436;DHT22;41307;53.142;6.430;2023-07-13T14:27:43;24.30;87.60
55436;DHT22;41307;53.142;6.430;2023-07-13T14:30:14;24.20;87.00
55436;DHT22;41307;53.142;6.430;2023-07-13T14:32:40;24.10;87.10
55436;DHT22;41307;53.142;6.430;2023-07-13T14:35:11;24.20;87.30
55436;DHT22;41307;53.142;6.430;2023-07-13T14:37:38;24.20;87.50
55436;DHT22;41307;53.142;6.430;2023-07-13T14:40:15;24.10;87.00
55436;DHT22;41307;53.142;6.430;2023-07-13T14:42:41;24.20;87.30
55436;DHT22;41307;53.142;6.430;2023-07-13T14:45:18;24.00;87.60
55436;DHT22;41307;53.142;6.430;2023-07-13T14:47:45;23.90;88.50
55436;DHT22;41307;53.142;6.430;2023-07-13T14:50:31;23.70;87.70
55436;DHT22;41307;53.142;6.430;2023-07-13T14:52:57;23.50;89.00
55436;DHT22;41307;53.142;6.430;2023-07-13T14:55:23;23.40;88.70
55436;DHT22;41307;53.142;6.430;2023-07-13T14:57:51;23.40;89.10
55436;DHT22;41307;53.142;6.430;2023-07-13T15:00:19;23.40;88.50
55436;DHT22;41307;53.142;6.430;2023-07-13T15:02:50;23.30;88.70
55436;DHT22;41307;53.142;6.430;2023-07-13T15:05:19;23.30;89.20
55436;DHT22;41307;53.142;6.430;2023-07-13T15:07:47;23.40;89.10
55436;DHT22;41307;53.142;6.430;2023-07-13T15:12:47;23.40;89.70
55436;DHT22;41307;53.142;6.430;2023-07-13T15:15:13;23.40;89.80
55436;DHT22;41307;53.142;6.430;2023-07-13T15:17:45;23.60;90.30
55436;DHT22;41307;53.142;6.430;2023-07-13T15:20:29;23.70;89.40
55436;DHT22;41307;53.142;6.430;2023-07-13T15:22:56;23.70;88.70
55436;DHT22;41307;53.142;6.430;2023-07-13T15:25:26;23.80;88.90
55436;DHT22;41307;53.142;6.430;2023-07-13T15:27:54;23.50;88.10
55436;DHT22;41307;53.142;6.430;2023-07-13T15:30:20;23.60;88.80
55436;DHT22;41307;53.142;6.430;2023-07-13T15:32:47;23.60;89.80
55436;DHT22;41307;53.142;6.430;2023-07-13T15:35:18;23.50;90.20
55436;DHT22;41307;53.142;6.430;2023-07-13T15:37:45;23.50;90.60
55436;DHT22;41307;53.142;6.430;2023-07-13T15:40:12;23.30;91.20
55436;DHT22;41307;53.142;6.430;2023-07-13T15:42:39;23.10;91.30
55436;DHT22;41307;53.142;6.430;2023-07-13T15:45:24;23.00;91.50
55436;DHT22;41307;53.142;6.430;2023-07-13T15:47:51;23.10;92.10
55436;DHT22;41307;53.142;6.430;2023-07-13T15:50:19;23.10;91.80
55436;DHT22;41307;53.142;6.430;2023-07-13T15:52:51;23.10;92.00
55436;DHT22;41307;53.142;6.430;2023-07-13T15:55:17;23.00;92.30
55436;DHT22;41307;53.142;6.430;2023-07-13T15:57:48;23.10;92.10
55436;DHT22;41307;53.142;6.430;2023-07-13T16:00:23;23.10;92.00
55436;DHT22;41307;53.142;6.430;2023-07-13T16:02:49;23.10;92.80
55436;DHT22;41307;53.142;6.430;2023-07-13T16:05:16;23.20;92.90
55436;DHT22;41307;53.142;6.430;2023-07-13T16:07:46;23.20;92.30
55436;DHT22;41307;53.142;6.430;2023-07-13T16:10:15;23.20;92.40
55436;DHT22;41307;53.142;6.430;2023-07-13T16:12:41;23.20;92.70
55436;DHT22;41307;53.142;6.430;2023-07-13T16:15:14;23.00;92.60
55436;DHT22;41307;53.142;6.430;2023-07-13T16:17:42;22.90;93.20
55436;DHT22;41307;53.142;6.430;2023-07-13T16:20:08;22.70;93.10